Time;durP1;ratioP1;P1;durP2;ratioP2;P2;SDS_P1;SDS_P2;PMS_P1;PMS_P2;Temp;Humidity;BMP_temperature;BMP_pressure;BME280_temperature;BME280_humidity;BME280_pressure;Samples;Min_cycle;Max_cycle;Signal;HPM_P1;HPM_P2
2022/06/05 00:01:40;;;;;;;7.57;4.38;;;14.30;99.90;;;;;;5025547;28;20064;-70
2022/06/05 00:04:41;;;;;;;7.43;4.35;;;14.30;99.90;;;;;;5025271;28;20033;-71
2022/06/05 00:07:30;;;;;;;7.18;3.85;;;14.30;99.90;;;;;;5024738;28;20037;-73
2022/06/05 00:10:10;;;;;;;10.65;4.75;;;14.30;99.90;;;;;;5025274;28;20036;-72
2022/06/05 00:12:52;;;;;;;9.55;4.63;;;14.30;99.90;;;;;;5025493;28;20085;-71
2022/06/05 00:15:17;;;;;;;11.10;5.75;;;14.20;99.90;;;;;;5024094;28;20104;-71
2022/06/05 00:17:43;;;;;;;14.82;4.55;;;14.20;99.90;;;;;;5025169;28;20022;-72
2022/06/05 00:20:09;;;;;;;10.65;4.53;;;14.20;99.90;;;;;;5024866;28;20026;-73
2022/06/05 00:22:38;;;;;;;9.85;4.78;;;14.20;99.90;;;;;;5007424;28;20039;-71
2022/06/05 00:25:04;;;;;;;8.65;4.75;;;14.20;99.90;;;;;;5024871;28;20026;-74
2022/06/05 00:27:41;;;;;;;7.20;4.70;;;14.10;99.90;;;;;;5024603;28;20080;-71
2022/06/05 00:30:21;;;;;;;7.03;4.22;;;14.10;99.90;;;;;;5007115;28;20034;-70
2022/06/05 00:33:08;;;;;;;10.05;4.35;;;14.10;99.90;;;;;;5024536;28;20502;-72
2022/06/05 00:35:45;;;;;;;12.48;4.80;;;14.10;99.90;;;;;;5024019;28;20026;-71
2022/06/05 00:38:41;;;;;;;10.60;5.07;;;14.10;99.90;;;;;;5006647;28;20113;-73
2022/06/05 00:41:28;;;;;;;11.02;4.80;;;14.10;99.90;;;;;;5016040;28;20050;-71
2022/06/05 00:43:59;;;;;;;9.30;4.63;;;13.90;99.90;;;;;;5025038;28;20034;-72
2022/06/05 00:46:26;;;;;;;10.50;4.65;;;14.00;99.90;;;;;;5024647;28;20030;-72
2022/06/05 00:48:52;;;;;;;12.48;6.13;;;14.00;99.90;;;;;;5024128;28;20022;-74
2022/06/05 00:51:18;;;;;;;11.93;5.88;;;13.90;99.90;;;;;;5024405;28;20033;-71
2022/06/05 00:53:44;;;;;;;9.07;4.43;;;13.90;99.90;;;;;;5024758;28;20026;-72
2022/06/05 00:56:12;;;;;;;6.65;3.80;;;13.90;99.90;;;;;;5022999;28;20026;-71
2022/06/05 00:58:38;;;;;;;10.57;5.38;;;13.80;99.90;;;;;;5024534;28;20030;-70
2022/06/05 01:01:04;;;;;;;12.90;4.70;;;13.80;99.90;;;;;;5024003;28;20038;-71
2022/06/05 01:03:32;;;;;;;10.38;4.93;;;13.80;99.90;;;;;;5024530;28;20390;-72
2022/06/05 01:05:57;;;;;;;19.83;6.28;;;13.80;99.90;;;;;;5023502;28;20057;-70
2022/06/05 01:08:23;;;;;;;16.00;5.47;;;13.80;99.90;;;;;;5024138;28;20030;-71
2022/06/05 01:11:08;;;;;;;9.10;5.60;;;13.80;99.90;;;;;;5024334;28;21001;-73
2022/06/05 01:13:37;;;;;;;14.38;5.50;;;13.70;99.90;;;;;;5023895;28;20376;-72
2022/06/05 01:16:20;;;;;;;9.60;4.55;;;13.70;99.90;;;;;;5023780;28;20045;-72
2022/06/05 01:19:12;;;;;;;8.77;5.10;;;13.70;99.90;;;;;;5005055;28;20075;-71
2022/06/05 01:22:15;;;;;;;12.50;6.10;;;13.60;99.90;;;;;;5006174;28;20033;-72
2022/06/05 01:25:08;;;;;;;9.35;4.95;;;13.60;99.90;;;;;;5006169;28;20030;-71
2022/06/05 01:27:39;;;;;;;8.50;4.35;;;13.60;99.90;;;;;;5023663;28;20034;-71
2022/06/05 01:30:18;;;;;;;12.75;4.47;;;13.60;99.90;;;;;;5023573;28;20029;-72
2022/06/05 01:33:06;;;;;;;7.93;4.78;;;13.50;99.90;;;;;;5023676;28;20053;-71
2022/06/05 01:35:49;;;;;;;11.38;5.03;;;13.50;99.90;;;;;;5023478;28;20014;-73
2022/06/05 01:38:23;;;;;;;11.80;5.32;;;13.40;99.90;;;;;;5023490;28;20037;-71
2022/06/05 01:40:54;;;;;;;29.27;6.23;;;13.40;99.90;;;;;;5005828;28;20084;-71
2022/06/05 01:43:23;;;;;;;8.98;4.82;;;13.20;99.90;;;;;;5023144;28;20053;-70
2022/06/05 01:45:54;;;;;;;12.15;5.00;;;13.30;99.90;;;;;;5022749;28;20045;-71
2022/06/05 01:48:37;;;;;;;9.95;5.07;;;13.30;99.90;;;;;;5023055;28;20034;-73
2022/06/05 01:51:09;;;;;;;12.07;5.72;;;13.30;99.90;;;;;;5005777;28;20026;-73
2022/06/05 01:53:43;;;;;;;11.80;5.53;;;13.30;99.90;;;;;;5022802;28;20018;-72
2022/06/05 01:56:40;;;;;;;13.77;5.50;;;13.20;99.90;;;;;;5022884;28;20088;-70
2022/06/05 01:59:22;;;;;;;8.50;4.18;;;13.20;99.90;;;;;;5005130;28;20030;-72
2022/06/05 02:01:53;;;;;;;14.02;5.40;;;13.10;99.90;;;;;;5022675;28;20386;-73
2022/06/05 02:04:46;;;;;;;13.50;5.82;;;13.10;99.90;;;;;;5022515;28;20048;-71
2022/06/05 02:07:27;;;;;;;11.10;5.38;;;13.10;99.90;;;;;;5015427;28;20048;-73
2022/06/05 02:10:05;;;;;;;13.75;4.65;;;13.10;99.90;;;;;;5023399;28;20053;-72
2022/06/05 02:12:33;;;;;;;14.27;5.32;;;13.00;99.90;;;;;;5023417;28;20534;-72
2022/06/05 02:15:00;;;;;;;13.95;5.43;;;13.00;99.90;;;;;;5005436;28;20048;-72
2022/06/05 02:17:26;;;;;;;9.40;5.70;;;13.00;99.90;;;;;;5022140;28;20072;-73
2022/06/05 02:19:52;;;;;;;10.30;5.85;;;12.90;99.90;;;;;;5023099;28;20041;-71
2022/06/05 02:22:23;;;;;;;12.90;6.13;;;12.90;99.90;;;;;;5021851;28;20037;-73
2022/06/05 02:24:49;;;;;;;16.42;5.78;;;12.90;99.90;;;;;;5022656;28;20466;-72
2022/06/05 02:27:21;;;;;;;8.07;5.22;;;12.80;99.90;;;;;;5022361;28;20037;-72
2022/06/05 02:29:48;;;;;;;13.05;5.55;;;12.90;99.90;;;;;;5005134;28;20144;-71
2022/06/05 02:32:48;;;;;;;7.45;4.40;;;12.90;99.90;;;;;;5022312;28;20094;-72
2022/06/05 02:35:17;;;;;;;14.90;5.22;;;12.90;99.90;;;;;;5022793;28;20018;-72
2022/06/05 02:37:56;;;;;;;10.82;5.07;;;12.80;99.90;;;;;;5022024;28;20018;-73
2022/06/05 02:40:42;;;;;;;9.27;4.80;;;12.80;99.90;;;;;;5022030;28;20033;-72
2022/06/05 02:43:23;;;;;;;9.15;5.40;;;12.80;99.90;;;;;;5022481;28;20037;-71
2022/06/05 02:46:28;;;;;;;13.73;5.93;;;12.70;99.90;;;;;;5022123;28;20034;-72
2022/06/05 02:49:16;;;;;;;10.52;4.75;;;12.70;99.90;;;;;;5022505;28;20073;-72
2022/06/05 02:51:43;;;;;;;9.52;5.40;;;12.70;99.90;;;;;;5022171;28;20030;-73
2022/06/05 02:54:21;;;;;;;8.25;4.03;;;12.70;99.90;;;;;;5021148;28;20025;-72
2022/06/05 02:56:47;;;;;;;11.02;5.35;;;12.70;99.90;;;;;;5021884;28;20089;-72
2022/06/05 02:59:12;;;;;;;12.35;4.63;;;12.60;99.90;;;;;;5022681;28;20045;-73
2022/06/05 03:04:22;;;;;;;15.20;5.82;;;12.60;99.90;;;;;;5022327;28;20037;-72
2022/06/05 03:06:48;;;;;;;12.38;4.88;;;12.60;99.90;;;;;;5022209;28;20034;-72
2022/06/05 03:09:15;;;;;;;13.70;5.45;;;12.50;99.90;;;;;;5021223;28;20029;-72
2022/06/05 03:11:42;;;;;;;12.50;5.72;;;12.50;99.90;;;;;;5021878;28;20048;-73
2022/06/05 03:14:08;;;;;;;11.85;5.40;;;12.50;99.90;;;;;;5004057;28;20022;-72
2022/06/05 03:16:34;;;;;;;13.50;5.47;;;12.50;99.90;;;;;;5021764;28;20065;-73
2022/06/05 03:19:01;;;;;;;9.20;5.10;;;12.50;99.90;;;;;;5024041;28;20049;-73
2022/06/05 03:21:30;;;;;;;18.63;4.95;;;12.50;99.90;;;;;;5026145;28;20038;-70
2022/06/05 03:23:56;;;;;;;11.15;4.90;;;12.40;99.90;;;;;;5026233;28;20090;-70
2022/06/05 03:26:22;;;;;;;15.73;5.30;;;12.50;99.90;;;;;;5025990;28;20037;-72
2022/06/05 03:28:48;;;;;;;7.75;3.92;;;12.50;99.90;;;;;;5025522;28;20037;-71
2022/06/05 03:31:14;;;;;;;9.18;4.90;;;12.50;99.90;;;;;;5025985;28;20022;-71
2022/06/05 03:33:39;;;;;;;7.55;4.05;;;12.50;99.90;;;;;;5026277;28;20033;-72
2022/06/05 03:36:09;;;;;;;8.18;4.55;;;12.50;99.90;;;;;;5008404;28;20101;-71
2022/06/05 03:38:36;;;;;;;14.38;5.40;;;12.50;99.90;;;;;;5007815;28;20038;-71
2022/06/05 03:41:02;;;;;;;11.18;5.35;;;12.50;99.90;;;;;;5026210;28;20076;-71
2022/06/05 03:43:28;;;;;;;10.07;5.38;;;12.50;99.90;;;;;;5025329;28;20072;-73
2022/06/05 03:46:06;;;;;;;11.35;5.07;;;12.50;99.90;;;;;;5025841;28;20044;-72
2022/06/05 03:48:33;;;;;;;10.55;4.20;;;12.50;99.90;;;;;;5025891;28;20049;-73
2022/06/05 03:51:04;;;;;;;9.77;4.63;;;12.50;99.90;;;;;;5024850;28;20029;-72
2022/06/05 03:53:30;;;;;;;10.13;4.60;;;12.50;99.90;;;;;;5025549;28;20032;-72
2022/06/05 03:55:56;;;;;;;9.43;5.07;;;12.50;99.90;;;;;;5025386;28;20034;-71
2022/06/05 03:58:21;;;;;;;10.38;4.95;;;12.50;99.90;;;;;;5007744;28;20018;-70
2022/06/05 04:00:47;;;;;;;12.15;4.70;;;12.50;99.90;;;;;;5025138;28;20422;-71
2022/06/05 04:03:12;;;;;;;7.85;4.22;;;12.50;99.90;;;;;;5025551;28;20093;-72
2022/06/05 04:05:38;;;;;;;10.45;4.88;;;12.60;99.90;;;;;;5025341;28;20030;-71
2022/06/05 04:08:04;;;;;;;7.78;4.10;;;12.60;99.90;;;;;;5024841;28;20085;-71
2022/06/05 04:10:31;;;;;;;8.80;4.53;;;12.70;99.90;;;;;;5025638;28;20034;-73
2022/06/05 04:12:57;;;;;;;10.50;5.13;;;12.60;99.90;;;;;;5025390;28;20117;-72
2022/06/05 04:15:23;;;;;;;10.23;4.80;;;12.70;99.90;;;;;;5024889;28;20156;-74
2022/06/05 04:17:48;;;;;;;7.93;4.22;;;12.60;99.90;;;;;;5025254;28;20576;-72
2022/06/05 04:20:14;;;;;;;13.27;4.93;;;12.70;99.90;;;;;;5024756;28;20030;-71
2022/06/05 04:22:40;;;;;;;14.88;4.35;;;12.70;99.90;;;;;;5024358;28;20026;-74
2022/06/05 04:25:08;;;;;;;8.80;4.50;;;12.70;99.90;;;;;;5025209;28;20021;-72
2022/06/05 04:27:34;;;;;;;7.78;4.75;;;12.70;99.90;;;;;;5024956;28;20040;-74
2022/06/05 04:30:02;;;;;;;11.73;4.70;;;12.80;99.90;;;;;;5006136;28;20021;-76
2022/06/05 04:32:28;;;;;;;10.07;4.35;;;12.80;99.90;;;;;;5024162;28;20133;-76
2022/06/05 04:34:53;;;;;;;12.68;4.65;;;12.80;99.90;;;;;;5024624;28;20069;-73
2022/06/05 04:37:19;;;;;;;13.63;5.28;;;12.80;99.90;;;;;;5024693;28;20045;-73
2022/06/05 04:39:45;;;;;;;9.77;5.15;;;12.80;99.90;;;;;;5024101;28;20028;-72
2022/06/05 04:42:10;;;;;;;9.63;4.32;;;12.90;99.90;;;;;;5006051;28;20056;-73
2022/06/05 04:44:37;;;;;;;10.77;5.43;;;12.90;99.90;;;;;;5024606;28;20052;-72
2022/06/05 04:47:04;;;;;;;8.15;4.43;;;12.90;99.90;;;;;;5024352;28;20076;-74
2022/06/05 04:49:30;;;;;;;11.18;5.25;;;13.00;99.90;;;;;;5007371;28;20029;-74
2022/06/05 04:51:55;;;;;;;7.13;3.95;;;13.00;99.90;;;;;;5007244;28;20032;-74
2022/06/05 04:54:21;;;;;;;8.02;4.35;;;13.10;99.90;;;;;;5023711;28;20870;-72
2022/06/05 04:56:47;;;;;;;15.00;4.30;;;13.10;99.90;;;;;;5023177;28;20030;-70
2022/06/05 04:59:13;;;;;;;12.05;4.47;;;13.20;99.90;;;;;;5021404;28;20033;-73
2022/06/05 05:01:39;;;;;;;9.45;4.28;;;13.20;99.90;;;;;;5024260;28;20042;-73
2022/06/05 05:04:12;;;;;;;9.60;4.80;;;13.20;99.90;;;;;;5022776;28;20093;-74
2022/06/05 05:06:39;;;;;;;7.65;4.32;;;13.30;99.90;;;;;;5005162;28;20486;-74
2022/06/05 05:09:06;;;;;;;9.63;4.97;;;13.40;99.90;;;;;;5005904;28;20026;-74
2022/06/05 05:11:33;;;;;;;8.20;4.40;;;13.40;99.90;;;;;;5006035;28;20026;-74
2022/06/05 05:14:00;;;;;;;6.65;3.83;;;13.40;99.90;;;;;;5000534;28;20533;-74
2022/06/05 05:16:27;;;;;;;10.38;4.43;;;13.50;99.90;;;;;;5018360;28;20060;-74
2022/06/05 05:18:54;;;;;;;6.55;3.88;;;13.50;99.90;;;;;;5022256;28;20068;-74
2022/06/05 05:21:22;;;;;;;7.32;3.97;;;13.60;99.90;;;;;;5022628;28;20042;-74
2022/06/05 05:23:49;;;;;;;10.38;4.22;;;13.70;99.90;;;;;;5021431;28;20949;-73
2022/06/05 05:26:31;;;;;;;10.90;3.90;;;13.70;99.90;;;;;;5022379;28;20068;-72
2022/06/05 05:28:58;;;;;;;8.43;3.60;;;13.80;99.90;;;;;;5023240;28;20058;-72
2022/06/05 05:31:36;;;;;;;8.60;4.32;;;13.80;99.90;;;;;;5021925;28;20024;-73
2022/06/05 05:34:02;;;;;;;7.70;4.03;;;14.00;99.90;;;;;;5022704;28;20034;-74
2022/06/05 05:36:30;;;;;;;9.55;3.53;;;14.00;99.90;;;;;;5023261;28;20049;-75
2022/06/05 05:44:27;;;;;;;7.72;3.80;;;14.30;99.90;;;;;;5023853;28;20144;-74
2022/06/05 05:46:53;;;;;;;7.93;3.85;;;14.40;99.90;;;;;;5021448;28;20042;-74
2022/06/05 05:49:19;;;;;;;9.27;4.13;;;14.40;99.90;;;;;;5020082;28;20034;-73
2022/06/05 05:51:45;;;;;;;7.07;4.25;;;14.60;99.90;;;;;;5021025;28;20041;-74
2022/06/05 05:54:11;;;;;;;7.18;4.10;;;14.70;99.90;;;;;;5019709;28;20038;-74
2022/06/05 05:56:37;;;;;;;7.18;3.58;;;14.70;99.90;;;;;;5021780;28;20089;-73
2022/06/05 05:59:03;;;;;;;10.57;4.13;;;14.80;99.90;;;;;;5021677;28;20018;-75
2022/06/05 06:01:31;;;;;;;8.52;4.50;;;14.90;99.90;;;;;;5023390;28;20049;-74
2022/06/05 06:03:57;;;;;;;6.45;3.83;;;15.00;99.90;;;;;;5022464;28;20037;-74
2022/06/05 06:06:26;;;;;;;6.93;3.65;;;15.20;99.90;;;;;;5022607;28;20718;-75
2022/06/05 06:08:52;;;;;;;7.72;3.63;;;15.30;99.90;;;;;;5019973;28;20036;-76
2022/06/05 06:11:18;;;;;;;9.43;4.00;;;15.40;99.90;;;;;;5003548;28;20018;-74
2022/06/05 06:13:44;;;;;;;6.45;3.92;;;15.60;99.90;;;;;;5023099;28;20078;-72
2022/06/05 06:16:09;;;;;;;8.13;3.95;;;15.50;99.90;;;;;;5021307;28;20441;-75
2022/06/05 06:18:36;;;;;;;7.07;3.38;;;15.50;99.90;;;;;;5021228;28;20057;-73
2022/06/05 06:21:02;;;;;;;5.93;3.58;;;15.80;99.90;;;;;;5020111;28;20069;-74
2022/06/05 06:23:28;;;;;;;5.35;2.78;;;15.90;99.90;;;;;;5021277;28;20030;-74
2022/06/05 06:25:54;;;;;;;11.40;3.97;;;15.90;99.90;;;;;;5005112;28;20084;-73
2022/06/05 06:28:21;;;;;;;5.75;3.17;;;16.10;99.90;;;;;;5022666;28;20603;-75
2022/06/05 06:30:47;;;;;;;7.45;3.67;;;16.20;99.90;;;;;;5022219;28;20093;-73
2022/06/05 06:33:13;;;;;;;9.32;3.38;;;16.20;99.90;;;;;;5020814;28;20098;-73
2022/06/05 06:35:39;;;;;;;13.25;3.20;;;16.30;99.90;;;;;;5022633;28;20036;-73
2022/06/05 06:38:05;;;;;;;14.45;3.05;;;16.40;99.90;;;;;;5004230;28;20041;-73
2022/06/05 06:40:34;;;;;;;5.05;2.97;;;16.50;99.90;;;;;;5019710;28;20045;-72
2022/06/05 06:43:00;;;;;;;6.55;3.20;;;16.60;99.90;;;;;;5022336;28;20022;-72
2022/06/05 06:45:25;;;;;;;4.60;2.80;;;16.70;99.90;;;;;;5021016;28;20036;-71
2022/06/05 06:47:51;;;;;;;7.72;3.30;;;16.90;99.90;;;;;;5021201;28;20418;-71
2022/06/05 06:50:17;;;;;;;14.77;3.30;;;17.00;99.90;;;;;;5020764;28;20026;-71
2022/06/05 06:52:43;;;;;;;4.72;2.88;;;17.10;99.90;;;;;;5018840;28;20022;-71
2022/06/05 06:55:12;;;;;;;4.60;2.35;;;17.20;99.90;;;;;;5021595;28;20022;-72
2022/06/05 06:57:39;;;;;;;5.93;3.03;;;17.30;99.90;;;;;;5001398;28;20176;-73
2022/06/05 07:00:05;;;;;;;6.68;3.08;;;17.40;99.90;;;;;;5021510;28;20090;-73
2022/06/05 07:02:31;;;;;;;6.15;2.55;;;17.40;99.90;;;;;;5019793;28;20057;-74
2022/06/05 07:04:57;;;;;;;6.63;2.80;;;17.50;99.90;;;;;;5018650;28;20038;-75
2022/06/05 07:07:23;;;;;;;5.00;2.60;;;17.60;99.90;;;;;;5020693;28;20030;-73
2022/06/05 07:09:48;;;;;;;6.20;2.58;;;17.70;99.90;;;;;;5003709;28;20026;-73
2022/06/05 07:12:17;;;;;;;5.03;2.05;;;17.80;99.90;;;;;;5021067;28;20033;-74
2022/06/05 07:14:43;;;;;;;3.70;2.33;;;17.90;99.90;;;;;;5020878;28;20029;-72
2022/06/05 07:17:10;;;;;;;5.00;2.55;;;18.00;99.90;;;;;;5021093;28;20387;-72
2022/06/05 07:19:36;;;;;;;5.43;2.63;;;18.10;99.90;;;;;;5019896;28;20030;-73
2022/06/05 07:22:01;;;;;;;5.55;2.83;;;18.20;99.90;;;;;;5002669;28;20042;-74
2022/06/05 07:24:27;;;;;;;5.70;2.45;;;18.30;99.90;;;;;;5022341;28;20037;-74
2022/06/05 07:26:54;;;;;;;8.07;2.80;;;18.50;99.90;;;;;;5003743;28;20052;-74
2022/06/05 07:29:20;;;;;;;6.93;2.22;;;18.50;99.90;;;;;;5021918;28;20018;-72
2022/06/05 07:31:46;;;;;;;4.13;2.28;;;18.60;99.90;;;;;;5021891;28;20687;-74
2022/06/05 07:34:11;;;;;;;3.72;2.28;;;18.60;99.90;;;;;;5021589;28;20014;-73
2022/06/05 07:36:38;;;;;;;2.05;1.65;;;18.70;99.90;;;;;;5020711;28;20060;-74
2022/06/05 07:39:04;;;;;;;4.40;2.33;;;18.90;99.90;;;;;;5022310;28;20029;-73
2022/06/05 07:41:33;;;;;;;5.22;3.00;;;19.00;99.90;;;;;;5022418;28;20037;-74
2022/06/05 07:44:00;;;;;;;4.88;2.72;;;19.00;99.90;;;;;;5019700;28;20508;-73
2022/06/05 07:46:27;;;;;;;7.43;3.00;;;19.10;99.90;;;;;;5022123;28;20070;-73
2022/06/05 07:48:53;;;;;;;4.38;2.65;;;19.30;99.90;;;;;;5021576;28;20025;-75
2022/06/05 07:54:28;;;;;;;6.50;2.10;;;19.50;99.90;;;;;;5021387;28;20081;-75
2022/06/05 07:56:55;;;;;;;3.80;2.38;;;19.60;99.90;;;;;;5020952;28;20028;-73
2022/06/05 07:59:20;;;;;;;5.35;2.33;;;19.70;99.90;;;;;;5021647;28;20049;-73
2022/06/05 08:01:46;;;;;;;4.05;2.30;;;19.80;99.90;;;;;;5020886;28;20053;-73
2022/06/05 08:04:12;;;;;;;6.13;2.40;;;19.90;99.90;;;;;;5018438;28;20033;-71
2022/06/05 08:06:39;;;;;;;6.97;2.42;;;19.90;99.90;;;;;;5003982;28;20022;-72
2022/06/05 08:09:07;;;;;;;3.83;1.92;;;19.90;99.90;;;;;;5023478;28;20029;-72
2022/06/05 08:11:33;;;;;;;5.65;2.33;;;20.00;99.90;;;;;;5023391;28;20021;-74
2022/06/05 08:14:01;;;;;;;8.23;2.78;;;20.00;99.90;;;;;;5007368;28;20113;-73
2022/06/05 08:16:27;;;;;;;4.47;2.53;;;20.10;99.90;;;;;;5023778;28;20057;-73
2022/06/05 08:18:54;;;;;;;4.45;2.08;;;20.20;99.90;;;;;;5020262;28;20125;-75
2022/06/05 08:21:34;;;;;;;6.07;2.42;;;20.30;99.90;;;;;;5001188;28;20054;-73
2022/06/05 08:24:06;;;;;;;3.80;2.35;;;20.40;99.90;;;;;;5018135;28;20076;-73
2022/06/05 08:26:33;;;;;;;8.95;2.35;;;20.50;99.90;;;;;;5023864;28;20038;-68
2022/06/05 08:28:59;;;;;;;9.13;2.50;;;20.60;99.90;;;;;;5024795;28;20014;-70
2022/06/05 08:31:25;;;;;;;4.32;2.38;;;20.70;99.90;;;;;;5024886;28;20029;-69
2022/06/05 08:33:50;;;;;;;2.40;1.65;;;20.80;99.90;;;;;;5024156;28;20026;-72
2022/06/05 08:36:17;;;;;;;5.20;2.60;;;20.80;99.90;;;;;;5020359;28;20069;-70
2022/06/05 08:41:51;;;;;;;8.38;2.45;;;21.00;99.90;;;;;;5023981;28;20102;-72
2022/06/05 08:44:32;;;;;;;3.72;2.03;;;21.10;99.90;;;;;;5024112;28;20061;-74
2022/06/05 08:47:15;;;;;;;3.33;2.25;;;21.20;99.90;;;;;;5005639;28;20038;-72
2022/06/05 08:49:57;;;;;;;3.08;2.10;;;21.30;99.90;;;;;;5024571;28;20068;-74
2022/06/05 08:52:32;;;;;;;3.33;2.15;;;21.50;99.90;;;;;;5023962;28;20038;-73
2022/06/05 08:55:12;;;;;;;4.00;2.38;;;21.60;99.90;;;;;;5023088;28;20054;-73
2022/06/05 08:57:56;;;;;;;3.80;1.83;;;21.70;99.90;;;;;;5023725;28;20029;-73
2022/06/05 09:00:42;;;;;;;5.63;2.60;;;21.80;99.90;;;;;;5003504;28;20030;-72
2022/06/05 09:03:27;;;;;;;4.97;2.35;;;21.90;99.90;;;;;;5024582;28;20069;-74
2022/06/05 09:05:58;;;;;;;4.53;2.65;;;22.10;99.90;;;;;;5024295;28;20036;-72
2022/06/05 09:08:32;;;;;;;4.28;2.15;;;22.20;99.90;;;;;;5022404;28;20034;-74
2022/06/05 09:11:05;;;;;;;5.18;2.35;;;22.30;99.90;;;;;;5021925;28;20141;-75
2022/06/05 09:13:53;;;;;;;5.30;2.00;;;22.40;99.90;;;;;;5023864;28;20017;-74
2022/06/05 09:16:28;;;;;;;3.75;1.92;;;22.30;99.90;;;;;;5022724;28;20061;-75
2022/06/05 09:18:57;;;;;;;6.82;2.13;;;22.40;99.90;;;;;;5021819;28;20053;-75
2022/06/05 09:21:26;;;;;;;5.03;2.70;;;22.30;99.90;;;;;;5023346;28;20080;-73
2022/06/05 09:24:07;;;;;;;8.65;2.28;;;22.40;99.90;;;;;;5022875;28;20034;-71
2022/06/05 09:26:44;;;;;;;3.58;2.65;;;22.40;99.90;;;;;;5023921;28;20033;-71
2022/06/05 09:29:15;;;;;;;3.72;2.05;;;22.40;99.90;;;;;;5023724;28;20030;-74
2022/06/05 09:32:08;;;;;;;3.65;2.13;;;22.40;99.90;;;;;;5023140;28;20129;-72
2022/06/05 09:34:41;;;;;;;4.55;2.20;;;22.50;99.90;;;;;;5024034;28;20030;-72
2022/06/05 09:37:25;;;;;;;4.00;2.17;;;22.50;99.90;;;;;;5023687;28;20479;-73
2022/06/05 09:40:13;;;;;;;4.67;2.23;;;22.50;99.90;;;;;;5022875;28;20058;-73
2022/06/05 09:42:59;;;;;;;16.08;2.30;;;22.60;99.90;;;;;;5023343;28;20312;-71
2022/06/05 09:45:48;;;;;;;6.80;2.05;;;22.70;99.90;;;;;;5022754;28;20022;-72
2022/06/05 09:48:25;;;;;;;5.72;2.22;;;22.80;99.90;;;;;;4995123;28;20080;-73
2022/06/05 09:50:52;;;;;;;4.25;2.03;;;22.80;99.90;;;;;;5023552;28;20034;-74
2022/06/05 09:53:28;;;;;;;4.15;2.17;;;22.80;99.90;;;;;;5005139;28;20533;-71
2022/06/05 09:56:11;;;;;;;3.55;2.42;;;22.90;99.90;;;;;;5022086;28;20026;-72
2022/06/05 09:59:26;;;;;;;4.13;2.13;;;23.00;99.90;;;;;;5022853;28;20026;-70
2022/06/05 10:01:56;;;;;;;5.95;2.53;;;23.10;99.90;;;;;;5022992;28;20030;-72
2022/06/05 10:04:26;;;;;;;3.72;2.25;;;23.10;99.90;;;;;;5022475;28;20069;-73
2022/06/05 10:06:57;;;;;;;3.60;2.20;;;23.30;99.90;;;;;;5022660;28;20026;-69
2022/06/05 10:09:26;;;;;;;8.60;2.58;;;23.40;99.90;;;;;;5020102;28;20065;-70
2022/06/05 10:11:54;;;;;;;3.95;2.45;;;23.50;99.90;;;;;;5020322;28;20508;-73
2022/06/05 10:14:51;;;;;;;3.50;2.25;;;23.40;99.90;;;;;;5021291;28;20037;-69
2022/06/05 10:17:41;;;;;;;2.72;1.65;;;23.50;99.90;;;;;;5021762;28;20117;-71
2022/06/05 10:20:12;;;;;;;3.97;2.60;;;23.50;99.90;;;;;;5003525;28;20029;-73
2022/06/05 10:22:45;;;;;;;4.82;2.38;;;23.60;99.90;;;;;;5022260;28;20030;-74
2022/06/05 10:25:52;;;;;;;2.70;2.03;;;23.70;99.90;;;;;;5021681;28;20025;-71
2022/06/05 10:28:23;;;;;;;6.38;1.83;;;23.80;99.90;;;;;;4982688;28;20072;-72
2022/06/05 10:31:09;;;;;;;5.05;2.55;;;23.90;99.90;;;;;;5011304;28;20026;-73
2022/06/05 10:33:54;;;;;;;4.07;2.30;;;23.80;99.90;;;;;;5020872;28;20037;-72
2022/06/05 10:36:50;;;;;;;4.78;2.47;;;23.80;99.90;;;;;;5019317;28;20029;-73
2022/06/05 10:39:40;;;;;;;3.22;2.20;;;23.90;99.90;;;;;;5019760;28;20046;-74
2022/06/05 10:42:27;;;;;;;3.60;2.17;;;24.00;99.90;;;;;;5011496;28;20046;-73
2022/06/05 10:45:35;;;;;;;4.55;2.25;;;24.00;99.90;;;;;;5021321;28;20813;-71
2022/06/05 10:48:38;;;;;;;4.13;2.05;;;24.00;99.90;;;;;;5003742;28;20077;-74
2022/06/05 10:51:23;;;;;;;3.40;1.95;;;24.10;99.90;;;;;;5022020;28;20034;-74
2022/06/05 10:54:14;;;;;;;;;;;24.30;99.90;;;;;;5022095;28;20032;-72
2022/06/05 10:57:01;;;;;;;4.30;2.25;;;24.50;99.90;;;;;;4984199;28;19924;-73
2022/06/05 10:59:45;;;;;;;3.65;2.35;;;24.50;99.90;;;;;;5020810;28;20104;-72
2022/06/05 11:02:34;;;;;;;4.53;2.20;;;24.50;99.90;;;;;;5003627;28;20465;-74
2022/06/05 11:05:26;;;;;;;4.15;2.47;;;24.50;99.90;;;;;;5021926;28;20273;-72
2022/06/05 11:08:08;;;;;;;2.53;1.92;;;24.70;99.90;;;;;;5020850;28;20026;-74
2022/06/05 11:13:44;;;;;;;3.08;1.92;;;24.90;99.90;;;;;;5020797;28;20076;-70
2022/06/05 11:16:23;;;;;;;2.30;1.67;;;25.00;99.90;;;;;;5021338;28;20042;-75
2022/06/05 11:19:13;;;;;;;2.45;1.60;;;25.00;99.90;;;;;;5020659;28;20046;-74
2022/06/05 11:21:47;;;;;;;4.43;2.13;;;25.10;99.90;;;;;;5021471;28;20044;-72
2022/06/05 11:24:39;;;;;;;3.38;2.10;;;25.30;99.90;;;;;;5020310;28;20055;-72
2022/06/05 11:27:30;;;;;;;3.22;1.80;;;25.40;99.90;;;;;;5020688;28;20030;-71
2022/06/05 11:30:06;;;;;;;2.83;2.00;;;25.60;99.90;;;;;;5020097;28;20050;-71
2022/06/05 11:32:46;;;;;;;3.00;2.13;;;25.50;99.90;;;;;;5018824;28;20092;-73
2022/06/05 11:35:27;;;;;;;2.65;2.00;;;25.50;99.90;;;;;;5018058;28;20030;-68
2022/06/05 11:38:14;;;;;;;2.20;1.73;;;25.50;99.90;;;;;;5018535;28;20026;-70
2022/06/05 11:40:57;;;;;;;2.83;1.83;;;25.50;99.90;;;;;;5022511;28;20573;-72
2022/06/05 11:43:30;;;;;;;3.65;2.00;;;25.60;99.90;;;;;;5006548;28;20017;-70
2022/06/05 11:46:01;;;;;;;3.47;2.43;;;25.60;99.90;;;;;;5024158;28;20045;-71
2022/06/05 11:48:50;;;;;;;3.85;2.10;;;25.70;99.90;;;;;;5023909;28;20332;-71
2022/06/05 11:51:34;;;;;;;7.28;1.75;;;25.80;99.90;;;;;;5023218;28;20029;-70
2022/06/05 11:54:25;;;;;;;2.95;1.88;;;26.00;99.90;;;;;;5024428;28;20041;-74
2022/06/05 11:57:14;;;;;;;9.70;2.47;;;26.00;99.90;;;;;;5024039;28;20047;-71
2022/06/05 12:00:16;;;;;;;4.88;2.20;;;26.00;99.90;;;;;;5022800;28;20064;-72
2022/06/05 12:02:58;;;;;;;2.92;1.83;;;26.10;99.90;;;;;;5024449;28;20041;-71
2022/06/05 12:05:37;;;;;;;4.10;2.00;;;26.20;99.90;;;;;;5006554;28;20026;-74
2022/06/05 12:08:09;;;;;;;2.97;1.65;;;26.40;99.90;;;;;;5025204;28;20018;-73
2022/06/05 12:10:47;;;;;;;2.78;1.80;;;26.60;99.90;;;;;;5027282;28;20030;-74
2022/06/05 12:13:45;;;;;;;3.78;1.73;;;26.70;99.90;;;;;;5026081;28;20033;-71
2022/06/05 12:16:32;;;;;;;5.38;1.92;;;26.80;99.90;;;;;;5024527;28;20203;-71
2022/06/05 12:19:20;;;;;;;2.72;2.00;;;26.70;99.90;;;;;;5003016;28;20034;-71
2022/06/05 12:25:44;;;;;;;3.67;2.00;;;26.90;99.90;;;;;;5019402;28;20441;-73
2022/06/05 12:28:17;;;;;;;3.40;2.20;;;27.00;99.90;;;;;;4984008;28;20045;-71
2022/06/05 12:30:55;;;;;;;5.57;2.13;;;27.20;99.90;;;;;;5006959;28;20022;-72
2022/06/05 12:33:42;;;;;;;3.58;1.88;;;27.30;99.90;;;;;;5023568;28;20041;-73
2022/06/05 12:36:37;;;;;;;3.25;1.85;;;27.40;99.90;;;;;;5024028;28;20026;-73
2022/06/05 12:39:14;;;;;;;4.00;2.00;;;27.40;99.90;;;;;;5023242;28;20065;-72
2022/06/05 12:42:00;;;;;;;4.25;1.60;;;27.30;99.90;;;;;;5023863;28;20046;-72
2022/06/05 12:44:41;;;;;;;2.88;1.90;;;27.30;99.90;;;;;;5023525;28;20463;-73
2022/06/05 12:47:25;;;;;;;4.00;2.10;;;27.30;99.90;;;;;;5023550;28;20117;-72
2022/06/05 12:49:54;;;;;;;3.05;1.90;;;27.40;99.90;;;;;;5024752;28;20037;-72
2022/06/05 12:52:24;;;;;;;3.88;1.70;;;27.40;99.90;;;;;;5023091;28;20030;-70
2022/06/05 12:55:18;;;;;;;3.72;2.13;;;27.40;99.90;;;;;;5024703;28;20049;-72
2022/06/05 12:57:44;;;;;;;6.63;2.22;;;27.10;99.90;;;;;;5012628;28;20041;-74
2022/06/05 13:00:36;;;;;;;3.95;2.13;;;26.90;99.90;;;;;;5024020;28;20030;-71
2022/06/05 13:03:22;;;;;;;5.03;2.22;;;26.80;99.90;;;;;;5023857;28;20048;-72
2022/06/05 13:06:13;;;;;;;3.55;2.10;;;26.70;99.90;;;;;;5024579;28;20029;-74
2022/06/05 13:08:51;;;;;;;2.75;1.95;;;26.60;99.90;;;;;;5024341;28;20033;-72
2022/06/05 13:11:36;;;;;;;2.58;1.77;;;26.50;99.90;;;;;;5006653;28;20029;-72
2022/06/05 13:14:25;;;;;;;4.72;2.55;;;26.50;99.90;;;;;;5023941;28;20021;-73
2022/06/05 13:16:57;;;;;;;2.97;1.98;;;26.40;99.90;;;;;;4999533;28;20049;-73
2022/06/05 13:19:46;;;;;;;4.88;2.38;;;26.40;99.90;;;;;;5003029;28;20034;-70
2022/06/05 13:22:26;;;;;;;3.08;1.95;;;26.30;99.90;;;;;;5001410;28;20030;-73
2022/06/05 13:25:30;;;;;;;3.58;2.08;;;26.30;99.90;;;;;;5002804;28;20030;-72
2022/06/05 13:28:39;;;;;;;3.80;2.17;;;26.10;99.90;;;;;;5001286;28;20030;-73
2022/06/05 13:31:20;;;;;;;3.67;2.10;;;26.00;99.90;;;;;;5001856;28;20023;-73
2022/06/05 13:34:19;;;;;;;3.20;2.00;;;25.80;99.90;;;;;;5004197;28;20050;-72
2022/06/05 13:37:08;;;;;;;8.82;2.05;;;25.60;99.90;;;;;;4980220;28;20039;-73
2022/06/05 13:40:03;;;;;;;2.80;1.98;;;25.40;99.90;;;;;;5002946;28;20070;-72
2022/06/05 13:42:37;;;;;;;3.90;2.05;;;25.30;99.90;;;;;;4972884;28;20062;-73
2022/06/05 13:45:08;;;;;;;;;;;25.10;99.90;;;;;;4999883;28;20029;-73